Observation data for Post on 03/25/2019      Previous  Date  Next       Current Mesonet Observations  Soil Data  Daily Summary Page  Observations in Plain Language
KPT1 250500Z 14004KT 14/04 A301 RMK A01 T01410036  RH  050%=      5-min Rain = 0
KPT1 250505Z 14004KT 14/04 A301 RMK A01 T01390037  RH  051%=      5-min Rain = 0
KPT1 250510Z 14004KT 14/04 A301 RMK A01 T01390037  RH  051%=      5-min Rain = 0
KPT1 250515Z 13004KT 14/04 A301 RMK A01 T01370038  RH  052%=      5-min Rain = 0
KPT1 250520Z 12003KT 14/04 A301 RMK A01 T01410039  RH  051%=      5-min Rain = 0
KPT1 250525Z 13004KT 14/04 A301 RMK A01 T01420039  RH  051%=      5-min Rain = 0
KPT1 250530Z 12003KT 14/04 A3011 RMK A01 T01410039  RH  051%=      5-min Rain = 0
KPT1 250535Z 08001KT 14/04 A3011 RMK A01 T01370039  RH  052%=      5-min Rain = 0
KPT1 250540Z 09002KT 13/04 A3011 RMK A01 T01340040  RH  054%=      5-min Rain = 0
KPT1 250545Z 09003KT 14/04 A3011 RMK A01 T01360040  RH  053%=      5-min Rain = 0
KPT1 250550Z 04002KT 14/04 A3011 RMK A01 T01360040  RH  053%=      5-min Rain = 0
KPT1 250555Z 03002KT 13/04 A3011 RMK A01 T01270038  RH  055%=      5-min Rain = 0
KPT1 250600Z 05003KT 13/04 A3011 RMK A01 T01260040  RH  057%=      5-min Rain = 0
KPT1 250605Z 01004KT 12/04 A3012 RMK A01 T01210039  RH  058%=      5-min Rain = 0
KPT1 250610Z 36005KT 12/04 A3012 RMK A01 T01160040  RH  061%=      5-min Rain = 0
KPT1 250615Z 35005KT 11/04 A3012 RMK A01 T01130041  RH  062%=      5-min Rain = 0
KPT1 250620Z 35004KT 11/04 A3012 RMK A01 T01110042  RH  064%=      5-min Rain = 0
KPT1 250625Z 35004KT 11/04 A3012 RMK A01 T01120042  RH  063%=      5-min Rain = 0
KPT1 250630Z 33007KT 10/04 A3013 RMK A01 T01020041  RH  067%=      5-min Rain = 0
KPT1 250635Z 01005KT 10/04 A3013 RMK A01 T01010043  RH  068%=      5-min Rain = 0
KPT1 250640Z 35006KT 11/04 A3013 RMK A01 T01060042  RH  066%=      5-min Rain = 0
KPT1 250645Z 35004KT 10/04 A3014 RMK A01 T00960043  RH  070%=      5-min Rain = 0
KPT1 250650Z 36004KT 10/04 A3014 RMK A01 T01000044  RH  069%=      5-min Rain = 0
KPT1 250655Z 00003KT 10/04 A3014 RMK A01 T01020044  RH  068%=      5-min Rain = 0
KPT1 250700Z 35003KT 10/04 A3014 RMK A01 T01020043  RH  068%=      5-min Rain = 0
KPT1 250705Z 00004KT 10/04 A3014 RMK A01 T01000042  RH  068%=      5-min Rain = 0
KPT1 250710Z 36002KT 10/04 A3013 RMK A01 T01000042  RH  068%=      5-min Rain = 0
KPT1 250715Z 33002KT 10/04 A3013 RMK A01 T01040043  RH  067%=      5-min Rain = 0
KPT1 250720Z 33003KT 11/04 A3014 RMK A01 T01050043  RH  066%=      5-min Rain = 0
KPT1 250725Z 34002KT 11/04 A3014 RMK A01 T01060043  RH  066%=      5-min Rain = 0
KPT1 250730Z 35002KT 11/04 A3014 RMK A01 T01070042  RH  065%=      5-min Rain = 0
KPT1 250735Z 36003KT 11/04 A3014 RMK A01 T01050042  RH  066%=      5-min Rain = 0
KPT1 250740Z 00004KT 10/04 A3014 RMK A01 T01030041  RH  066%=      5-min Rain = 0
KPT1 250745Z 35005KT 10/04 A3014 RMK A01 T00970040  RH  068%=      5-min Rain = 0
KPT1 250750Z 00004KT 10/04 A3014 RMK A01 T00970042  RH  069%=      5-min Rain = 0
KPT1 250755Z 35004KT 10/04 A3014 RMK A01 T00980042  RH  069%=      5-min Rain = 0
KPT1 250800Z 01004KT 10/04 A3014 RMK A01 T00970043  RH  070%=      5-min Rain = 0
KPT1 250805Z 01004KT 10/04 A3014 RMK A01 T01030043  RH  067%=      5-min Rain = 0
KPT1 250810Z 35005KT 10/04 A3014 RMK A01 T00960040  RH  069%=      5-min Rain = 0
KPT1 250815Z 35005KT 09/04 A3014 RMK A01 T00900041  RH  072%=      5-min Rain = 0
KPT1 250820Z 35005KT 09/04 A3014 RMK A01 T00920042  RH  072%=      5-min Rain = 0
KPT1 250825Z 35005KT 09/04 A3014 RMK A01 T00930044  RH  072%=      5-min Rain = 0
KPT1 250830Z 35004KT 09/04 A3015 RMK A01 T00900042  RH  073%=      5-min Rain = 0
KPT1 250835Z 35005KT 09/04 A3015 RMK A01 T00880043  RH  074%=      5-min Rain = 0
KPT1 250840Z 32004KT 09/04 A3015 RMK A01 T00860042  RH  075%=      5-min Rain = 0
KPT1 250845Z 32004KT 08/04 A3015 RMK A01 T00820042  RH  077%=      5-min Rain = 0
KPT1 250850Z 35004KT 08/04 A3015 RMK A01 T00840044  RH  077%=      5-min Rain = 0
KPT1 250855Z 35003KT 08/04 A3015 RMK A01 T00840042  RH  076%=      5-min Rain = 0
KPT1 250900Z 35004KT 08/04 A3015 RMK A01 T00820042  RH  077%=      5-min Rain = 0
KPT1 250905Z 36004KT 08/04 A3015 RMK A01 T00790041  RH  078%=      5-min Rain = 0
KPT1 250910Z 01005KT 08/05 A3015 RMK A01 T00810045  RH  079%=      5-min Rain = 0
KPT1 250915Z 00005KT 09/05 A3015 RMK A01 T00860047  RH  078%=      5-min Rain = 0
KPT1 250920Z 01005KT 09/05 A3015 RMK A01 T00860048  RH  078%=      5-min Rain = 0
KPT1 250925Z 00005KT 09/05 A3015 RMK A01 T00860048  RH  078%=      5-min Rain = 0
KPT1 250930Z 00005KT 09/05 A3015 RMK A01 T00850047  RH  078%=      5-min Rain = 0
KPT1 250935Z 36005KT 08/05 A3016 RMK A01 T00840047  RH  079%=      5-min Rain = 0
KPT1 250940Z 35004KT 08/05 A3016 RMK A01 T00780046  RH  081%=      5-min Rain = 0
KPT1 250945Z 35006KT 08/05 A3016 RMK A01 T00750045  RH  083%=      5-min Rain = 0
KPT1 250950Z 35005KT 07/05 A3017 RMK A01 T00740047  RH  084%=      5-min Rain = 0
KPT1 250955Z 36005KT 08/05 A3016 RMK A01 T00770050  RH  084%=      5-min Rain = 0
KPT1 251000Z 00005KT 08/05 A3017 RMK A01 T00810052  RH  083%=      5-min Rain = 0
KPT1 251005Z 00004KT 08/05 A3017 RMK A01 T00810051  RH  082%=      5-min Rain = 0
KPT1 251010Z 00004KT 08/05 A3017 RMK A01 T00830053  RH  082%=      5-min Rain = 0
KPT1 251015Z 01004KT 09/05 A3017 RMK A01 T00850052  RH  081%=      5-min Rain = 0
KPT1 251020Z 00004KT 08/05 A3017 RMK A01 T00840052  RH  081%=      5-min Rain = 0
KPT1 251025Z 01005KT 08/05 A3017 RMK A01 T00840052  RH  081%=      5-min Rain = 0
KPT1 251030Z 01004KT 09/05 A3018 RMK A01 T00850053  RH  082%=      5-min Rain = 0
KPT1 251035Z 36004KT 08/05 A3018 RMK A01 T00840053  RH  082%=      5-min Rain = 0
KPT1 251040Z 34003KT 08/05 A3018 RMK A01 T00820051  RH  082%=      5-min Rain = 0
KPT1 251045Z 34003KT 08/05 A3018 RMK A01 T00800052  RH  084%=      5-min Rain = 0
KPT1 251050Z 36004KT 08/05 A3018 RMK A01 T00790051  RH  083%=      5-min Rain = 0
KPT1 251055Z 35003KT 08/05 A3018 RMK A01 T00780051  RH  084%=      5-min Rain = 0
KPT1 251100Z 35003KT 08/05 A3018 RMK A01 T00780051  RH  084%=      5-min Rain = 0
KPT1 251105Z 34003KT 07/05 A3018 RMK A01 T00730048  RH  085%=      5-min Rain = 0
KPT1 251110Z 35003KT 07/05 A3018 RMK A01 T00740051  RH  087%=      5-min Rain = 0
KPT1 251115Z 35003KT 08/05 A3018 RMK A01 T00760052  RH  086%=      5-min Rain = 0
KPT1 251120Z 34003KT 08/05 A3018 RMK A01 T00760052  RH  086%=      5-min Rain = 0
KPT1 251125Z 34003KT 08/05 A3018 RMK A01 T00760052  RH  086%=      5-min Rain = 0
KPT1 251130Z 33004KT 07/05 A3018 RMK A01 T00740050  RH  086%=      5-min Rain = 0
KPT1 251135Z 33003KT 07/05 A3018 RMK A01 T00720049  RH  087%=      5-min Rain = 0
KPT1 251140Z 33003KT 07/05 A3018 RMK A01 T00700049  RH  088%=      5-min Rain = 0
KPT1 251145Z 33003KT 07/05 A3018 RMK A01 T00700049  RH  088%=      5-min Rain = 0
KPT1 251150Z 33004KT 07/05 A3018 RMK A01 T00700049  RH  088%=      5-min Rain = 0
KPT1 251155Z 32003KT 07/05 A3018 RMK A01 T00720050  RH  088%=      5-min Rain = 0
KPT1 251200Z 33004KT 07/05 A3019 RMK A01 T00740050  RH  086%=      5-min Rain = 0
KPT1 251205Z 34005KT 07/05 A3019 RMK A01 T00700048  RH  087%=      5-min Rain = 0
KPT1 251210Z 34004KT 07/05 A3019 RMK A01 T00680047  RH  088%=      5-min Rain = 0
KPT1 251215Z 34003KT 07/05 A3019 RMK A01 T00700050  RH  088%=      5-min Rain = 0
KPT1 251220Z 34003KT 07/05 A302 RMK A01 T00740050  RH  086%=      5-min Rain = 0
KPT1 251225Z 36003KT 07/05 A302 RMK A01 T00730050  RH  086%=      5-min Rain = 0
KPT1 251230Z 34004KT 07/05 A302 RMK A01 T00740050  RH  086%=      5-min Rain = 0
KPT1 251235Z 00004KT 07/05 A3021 RMK A01 T00740051  RH  086%=      5-min Rain = 0
KPT1 251240Z 01005KT 08/05 A3021 RMK A01 T00790051  RH  084%=      5-min Rain = 0
KPT1 251245Z 01005KT 08/05 A3021 RMK A01 T00800052  RH  083%=      5-min Rain = 0
KPT1 251250Z 00004KT 08/05 A3021 RMK A01 T00800051  RH  083%=      5-min Rain = 0
KPT1 251255Z 35004KT 08/05 A3021 RMK A01 T00770049  RH  084%=      5-min Rain = 0
KPT1 251300Z 34004KT 07/05 A3021 RMK A01 T00730049  RH  086%=      5-min Rain = 0
KPT1 251305Z 35004KT 08/05 A3022 RMK A01 T00760051  RH  085%=      5-min Rain = 0
KPT1 251310Z 00004KT 08/05 A3022 RMK A01 T00790052  RH  084%=      5-min Rain = 0
KPT1 251315Z 01004KT 08/05 A3022 RMK A01 T00820053  RH  083%=      5-min Rain = 0
KPT1 251320Z 01003KT 09/06 A3022 RMK A01 T00870056  RH  082%=      5-min Rain = 0
KPT1 251325Z 36002KT 09/06 A3022 RMK A01 T00910058  RH  081%=      5-min Rain = 0
KPT1 251330Z 01003KT 10/06 A3022 RMK A01 T00950060  RH  080%=      5-min Rain = 0
KPT1 251335Z 02004KT 10/06 A3022 RMK A01 T01000062  RH  079%=      5-min Rain = 0
KPT1 251340Z 01004KT 10/06 A3022 RMK A01 T01030062  RH  077%=      5-min Rain = 0
KPT1 251345Z 01004KT 10/06 A3023 RMK A01 T01040062  RH  076%=      5-min Rain = 0
KPT1 251350Z 02004KT 11/06 A3023 RMK A01 T01050062  RH  076%=      5-min Rain = 0
KPT1 251355Z 02004KT 11/06 A3023 RMK A01 T01070063  RH  075%=      5-min Rain = 0
KPT1 251400Z 03004KT 11/07 A3024 RMK A01 T01090065  RH  075%=      5-min Rain = 0
KPT1 251405Z 03005KT 11/06 A3024 RMK A01 T01110064  RH  074%=      5-min Rain = 0
KPT1 251410Z 02005KT 11/07 A3024 RMK A01 T01140065  RH  073%=      5-min Rain = 0
KPT1 251415Z 04005KT 12/07 A3025 RMK A01 T01180065  RH  071%=      5-min Rain = 0
KPT1 251420Z 03006KT 12/06 A3025 RMK A01 T01180064  RH  070%=      5-min Rain = 0
KPT1 251425Z 04005KT 12/07 A3025 RMK A01 T01220067  RH  070%=      5-min Rain = 0
KPT1 251430Z 02004KT 13/07 A3025 RMK A01 T01260066  RH  068%=      5-min Rain = 0
KPT1 251435Z 02005KT 13/07 A3026 RMK A01 T01290066  RH  067%=      5-min Rain = 0
KPT1 251440Z 04005KT 13/07 A3026 RMK A01 T01320067  RH  066%=      5-min Rain = 0
KPT1 251445Z 04006KT 14/07 A3026 RMK A01 T01360067  RH  064%=      5-min Rain = 0
KPT1 251450Z 04006KT 14/07 A3027 RMK A01 T01380066  RH  063%=      5-min Rain = 0
KPT1 251455Z 05007G12KT 14/07 A3027 RMK A01 T01420065  RH  061%=      5-min Rain = 0
KPT1 251500Z 07008KT 14/06 A3027 RMK A01 T01420064  RH  060%=      5-min Rain = 0
KPT1 251505Z 07007KT 14/06 A3027 RMK A01 T01400061  RH  060%=      5-min Rain = 0
KPT1 251510Z 06009KT 15/06 A3027 RMK A01 T01450064  RH  059%=      5-min Rain = 0
KPT1 251515Z 06008KT 15/06 A3028 RMK A01 T01470063  RH  058%=      5-min Rain = 0
KPT1 251520Z 06010KT 15/06 A3028 RMK A01 T01460063  RH  058%=      5-min Rain = 0
KPT1 251525Z 07011KT 15/06 A3028 RMK A01 T01470064  RH  058%=      5-min Rain = 0
KPT1 251530Z 06011KT 15/07 A3028 RMK A01 T01470065  RH  059%=      5-min Rain = 0
KPT1 251535Z 08010KT 15/07 A3028 RMK A01 T01500066  RH  058%=      5-min Rain = 0
KPT1 251540Z 08012KT 15/07 A3029 RMK A01 T01490065  RH  058%=      5-min Rain = 0
KPT1 251545Z 09011G16KT 15/07 A3029 RMK A01 T01520067  RH  057%=      5-min Rain = 0
KPT1 251550Z 08012KT 15/07 A3029 RMK A01 T01520067  RH  058%=      5-min Rain = 0
KPT1 251555Z 08010G15KT 16/07 A3029 RMK A01 T01560069  RH  057%=      5-min Rain = 0
KPT1 251600Z 08009KT 16/07 A3029 RMK A01 T01580068  RH  056%=      5-min Rain = 0
KPT1 251605Z 08009KT 16/07 A3029 RMK A01 T01600069  RH  055%=      5-min Rain = 0
KPT1 251610Z 06011KT 16/07 A3029 RMK A01 T01640068  RH  054%=      5-min Rain = 0
KPT1 251615Z 07010KT 16/07 A3029 RMK A01 T01630068  RH  054%=      5-min Rain = 0
KPT1 251620Z 08011KT 16/07 A3029 RMK A01 T01600066  RH  054%=      5-min Rain = 0
KPT1 251625Z 08010G15KT 16/07 A3029 RMK A01 T01570066  RH  055%=      5-min Rain = 0
KPT1 251630Z 09011KT 16/07 A3029 RMK A01 T01630067  RH  054%=      5-min Rain = 0
KPT1 251635Z 08010G15KT 16/07 A3029 RMK A01 T01610068  RH  055%=      5-min Rain = 0
KPT1 251640Z 08009G14KT 17/07 A3029 RMK A01 T01660069  RH  054%=      5-min Rain = 0
KPT1 251645Z 09009KT 17/07 A3029 RMK A01 T01660068  RH  053%=      5-min Rain = 0
KPT1 251650Z 07009KT 17/07 A3029 RMK A01 T01650068  RH  053%=      5-min Rain = 0
KPT1 251655Z 09009KT 17/07 A3029 RMK A01 T01710071  RH  052%=      5-min Rain = 0
KPT1 251700Z 09010KT 17/07 A3029 RMK A01 T01710070  RH  052%=      5-min Rain = 0
KPT1 251705Z 09009KT 17/07 A3029 RMK A01 T01740069  RH  051%=      5-min Rain = 0
KPT1 251710Z 06008KT 17/07 A3029 RMK A01 T01720069  RH  052%=      5-min Rain = 0
KPT1 251715Z 07007KT 17/07 A3029 RMK A01 T01740070  RH  051%=      5-min Rain = 0
KPT1 251720Z 09009KT 18/07 A3029 RMK A01 T01800072  RH  050%=      5-min Rain = 0
KPT1 251725Z 08008KT 18/07 A3029 RMK A01 T01770068  RH  050%=      5-min Rain = 0
KPT1 251730Z 07009G14KT 18/07 A3029 RMK A01 T01750069  RH  050%=      5-min Rain = 0
KPT1 251735Z 08010G15KT 18/07 A3029 RMK A01 T01780068  RH  049%=      5-min Rain = 0
KPT1 251740Z 08008KT 18/07 A3029 RMK A01 T01750066  RH  049%=      5-min Rain = 0
KPT1 251745Z 07008G13KT 18/07 A3029 RMK A01 T01780067  RH  049%=      5-min Rain = 0
KPT1 251750Z 08009KT 18/07 A3029 RMK A01 T01770066  RH  049%=      5-min Rain = 0
KPT1 251755Z 07007G12KT 18/07 A3029 RMK A01 T01780070  RH  050%=      5-min Rain = 0
KPT1 251800Z 08009KT 18/07 A3029 RMK A01 T01830070  RH  048%=      5-min Rain = 0
KPT1 251805Z 07009G15KT 18/07 A3029 RMK A01 T01790069  RH  049%=      5-min Rain = 0
KPT1 251810Z 08008G13KT 18/07 A3028 RMK A01 T01820071  RH  049%=      5-min Rain = 0
KPT1 251815Z 07009KT 19/07 A3028 RMK A01 T01850070  RH  048%=      5-min Rain = 0
KPT1 251820Z 08009G15KT 19/07 A3028 RMK A01 T01860068  RH  047%=      5-min Rain = 0
KPT1 251825Z 08009KT 19/07 A3028 RMK A01 T01880068  RH  046%=      5-min Rain = 0
KPT1 251830Z 08006G12KT 18/07 A3028 RMK A01 T01840066  RH  047%=      5-min Rain = 0
KPT1 251835Z 09009KT 19/07 A3028 RMK A01 T01850067  RH  047%=      5-min Rain = 0
KPT1 251840Z 10009KT 19/07 A3028 RMK A01 T01900068  RH  046%=      5-min Rain = 0
KPT1 251845Z 10009G14KT 19/07 A3027 RMK A01 T01900068  RH  045%=      5-min Rain = 0
KPT1 251850Z 07009G14KT 19/07 A3027 RMK A01 T01930066  RH  044%=      5-min Rain = 0
KPT1 251855Z 06008KT 20/07 A3027 RMK A01 T01950069  RH  044%=      5-min Rain = 0
KPT1 251900Z 08010G15KT 20/07 A3027 RMK A01 T01950066  RH  044%=      5-min Rain = 0
KPT1 251905Z 08008KT 19/07 A3027 RMK A01 T01910067  RH  045%=      5-min Rain = 0
KPT1 251910Z 08008G16KT 20/07 A3027 RMK A01 T01950067  RH  044%=      5-min Rain = 0
KPT1 251915Z 11008KT 20/06 A3027 RMK A01 T01990062  RH  041%=      5-min Rain = 0
KPT1 251920Z 07008G14KT 20/07 A3026 RMK A01 T01970065  RH  043%=      5-min Rain = 0
KPT1 251925Z 07007KT 20/06 A3026 RMK A01 T01950064  RH  043%=      5-min Rain = 0
KPT1 251930Z 11008KT 20/06 A3026 RMK A01 T01950059  RH  041%=      5-min Rain = 0
KPT1 251935Z 10008KT 20/06 A3026 RMK A01 T02000061  RH  041%=      5-min Rain = 0
KPT1 251940Z 10007KT 20/06 A3026 RMK A01 T02010056  RH  039%=      5-min Rain = 0
KPT1 251945Z 10005G13KT 20/06 A3026 RMK A01 T02000056  RH  039%=      5-min Rain = 0
KPT1 251950Z 12008KT 20/06 A3026 RMK A01 T02000055  RH  039%=      5-min Rain = 0
KPT1 251955Z 13006KT 20/06 A3025 RMK A01 T02030056  RH  039%=      5-min Rain = 0
KPT1 252000Z 12007KT 20/06 A3025 RMK A01 T02040060  RH  039%=      5-min Rain = 0
KPT1 252005Z 12008G13KT 20/06 A3025 RMK A01 T02000058  RH  040%=      5-min Rain = 0
KPT1 252010Z 09006G12KT 21/06 A3025 RMK A01 T02050061  RH  040%=      5-min Rain = 0
KPT1 252015Z 07008KT 20/06 A3025 RMK A01 T02030060  RH  040%=      5-min Rain = 0
KPT1 252020Z 07006KT 20/06 A3025 RMK A01 T02010059  RH  040%=      5-min Rain = 0
KPT1 252025Z 10007KT 20/06 A3025 RMK A01 T02000061  RH  041%=      5-min Rain = 0
KPT1 252030Z 07004G10KT 20/06 A3025 RMK A01 T02020058  RH  040%=      5-min Rain = 0
KPT1 252035Z 11005G11KT 21/06 A3024 RMK A01 T02080060  RH  039%=      5-min Rain = 0
KPT1 252040Z 09006G13KT 20/06 A3024 RMK A01 T02030056  RH  039%=      5-min Rain = 0
KPT1 252045Z 05004G10KT 20/06 A3024 RMK A01 T02030057  RH  039%=      5-min Rain = 0
KPT1 252050Z 11006G11KT 21/06 A3024 RMK A01 T02060063  RH  040%=      5-min Rain = 0
KPT1 252055Z 06007G12KT 21/07 A3024 RMK A01 T02100065  RH  040%=      5-min Rain = 0
KPT1 252100Z 07006KT 21/06 A3023 RMK A01 T02070060  RH  039%=      5-min Rain = 0
KPT1 252105Z 08007G13KT 21/06 A3023 RMK A01 T02080062  RH  039%=      5-min Rain = 0
KPT1 252110Z 05006KT 21/06 A3023 RMK A01 T02070059  RH  039%=      5-min Rain = 0
KPT1 252115Z 05008KT 21/06 A3023 RMK A01 T02080061  RH  039%=      5-min Rain = 0
KPT1 252120Z 07006KT 20/06 A3023 RMK A01 T02030055  RH  039%=      5-min Rain = 0
KPT1 252125Z 07004G9KT 21/06 A3023 RMK A01 T02050056  RH  038%=      5-min Rain = 0
KPT1 252130Z 06008KT 21/06 A3023 RMK A01 T02080055  RH  037%=      5-min Rain = 0
KPT1 252135Z 07005KT 21/05 A3022 RMK A01 T02060051  RH  037%=      5-min Rain = 0
KPT1 252140Z 10005G14KT 21/05 A3022 RMK A01 T02080054  RH  037%=      5-min Rain = 0
KPT1 252145Z 11009KT 21/06 A3022 RMK A01 T02080055  RH  037%=      5-min Rain = 0
KPT1 252150Z 12006G11KT 20/05 A3022 RMK A01 T01990050  RH  038%=      5-min Rain = 0
KPT1 252155Z 10006KT 21/06 A3022 RMK A01 T02070056  RH  038%=      5-min Rain = 0
KPT1 252200Z 08008KT 21/06 A3022 RMK A01 T02100058  RH  038%=      5-min Rain = 0
KPT1 252205Z 11005KT 21/05 A3022 RMK A01 T02060053  RH  037%=      5-min Rain = 0
KPT1 252210Z 11007KT 21/06 A3022 RMK A01 T02100056  RH  037%=      5-min Rain = 0
KPT1 252215Z 12006KT 21/06 A3022 RMK A01 T02130056  RH  036%=      5-min Rain = 0
KPT1 252220Z 08006KT 21/05 A3022 RMK A01 T02090054  RH  037%=      5-min Rain = 0
KPT1 252225Z 07006KT 21/05 A3022 RMK A01 T02080054  RH  037%=      5-min Rain = 0
KPT1 252230Z 12005KT 21/05 A3022 RMK A01 T02120054  RH  036%=      5-min Rain = 0
KPT1 252235Z 08006KT 21/05 A3022 RMK A01 T02070054  RH  037%=      5-min Rain = 0
KPT1 252240Z 07007KT 21/06 A3022 RMK A01 T02090055  RH  037%=      5-min Rain = 0
KPT1 252245Z 08006KT 21/05 A3022 RMK A01 T02080053  RH  037%=      5-min Rain = 0
KPT1 252250Z 09005G10KT 21/05 A3022 RMK A01 T02090054  RH  037%=      5-min Rain = 0
KPT1 252255Z 09007KT 21/06 A3023 RMK A01 T02090056  RH  037%=      5-min Rain = 0
KPT1 252300Z 07005KT 21/06 A3023 RMK A01 T02080055  RH  037%=      5-min Rain = 0
KPT1 252305Z 06006KT 21/05 A3022 RMK A01 T02070054  RH  037%=      5-min Rain = 0
KPT1 252310Z 08005G10KT 20/05 A3023 RMK A01 T02040053  RH  037%=      5-min Rain = 0
KPT1 252315Z 10006G12KT 20/05 A3023 RMK A01 T02040053  RH  038%=      5-min Rain = 0
KPT1 252320Z 09004KT 21/05 A3023 RMK A01 T02050053  RH  038%=      5-min Rain = 0
KPT1 252325Z 10008KT 20/05 A3023 RMK A01 T02010053  RH  038%=      5-min Rain = 0
KPT1 252330Z 10006KT 20/05 A3023 RMK A01 T01950052  RH  040%=      5-min Rain = 0
KPT1 252335Z 07005KT 20/05 A3023 RMK A01 T01990054  RH  039%=      5-min Rain = 0
KPT1 252340Z 09008KT 20/05 A3023 RMK A01 T02010052  RH  038%=      5-min Rain = 0
KPT1 252345Z 07007KT 20/05 A3023 RMK A01 T01990053  RH  039%=      5-min Rain = 0
KPT1 252350Z 10008KT 20/05 A3023 RMK A01 T01980052  RH  039%=      5-min Rain = 0
KPT1 252355Z 11006KT 20/05 A3023 RMK A01 T01980052  RH  039%=      5-min Rain = 0
KPT1 260000Z 09008KT 20/05 A3023 RMK A01 T01960054  RH  040%=      5-min Rain = 0
KPT1 260005Z 07007KT 19/05 A3023 RMK A01 T01940052  RH  040%=      5-min Rain = 0
KPT1 260010Z 06006KT 19/05 A3023 RMK A01 T01920052  RH  040%=      5-min Rain = 0
KPT1 260015Z 08007KT 19/05 A3023 RMK A01 T01920052  RH  040%=      5-min Rain = 0
KPT1 260020Z 09005KT 19/05 A3023 RMK A01 T01910051  RH  040%=      5-min Rain = 0
KPT1 260025Z 09006KT 19/05 A3023 RMK A01 T01890050  RH  040%=      5-min Rain = 0
KPT1 260030Z 08007KT 19/05 A3023 RMK A01 T01870052  RH  042%=      5-min Rain = 0
KPT1 260035Z 08008KT 18/05 A3023 RMK A01 T01840054  RH  043%=      5-min Rain = 0
KPT1 260040Z 08008KT 18/06 A3023 RMK A01 T01820055  RH  044%=      5-min Rain = 0
KPT1 260045Z 08007KT 18/06 A3023 RMK A01 T01800055  RH  044%=      5-min Rain = 0
KPT1 260050Z 08006KT 18/06 A3023 RMK A01 T01760056  RH  046%=      5-min Rain = 0
KPT1 260055Z 09007KT 17/06 A3023 RMK A01 T01730055  RH  047%=      5-min Rain = 0
KPT1 260100Z 09006KT 17/06 A3023 RMK A01 T01690056  RH  048%=      5-min Rain = 0
KPT1 260105Z 09006KT 17/06 A3023 RMK A01 T01660056  RH  049%=      5-min Rain = 0
KPT1 260110Z 09006KT 16/06 A3023 RMK A01 T01620056  RH  050%=      5-min Rain = 0
KPT1 260115Z 09006KT 16/06 A3023 RMK A01 T01600057  RH  051%=      5-min Rain = 0
KPT1 260120Z 09007KT 16/06 A3023 RMK A01 T01580057  RH  052%=      5-min Rain = 0
KPT1 260125Z 10007KT 16/06 A3023 RMK A01 T01590057  RH  051%=      5-min Rain = 0
KPT1 260130Z 10008KT 16/06 A3024 RMK A01 T01570058  RH  052%=      5-min Rain = 0
KPT1 260135Z 10007KT 16/06 A3024 RMK A01 T01560058  RH  053%=      5-min Rain = 0
KPT1 260140Z 10007KT 16/06 A3024 RMK A01 T01550058  RH  053%=      5-min Rain = 0
KPT1 260145Z 10007KT 15/06 A3024 RMK A01 T01520059  RH  055%=      5-min Rain = 0
KPT1 260150Z 10007KT 15/06 A3024 RMK A01 T01500059  RH  055%=      5-min Rain = 0
KPT1 260155Z 10008KT 15/06 A3024 RMK A01 T01500059  RH  055%=      5-min Rain = 0
KPT1 260200Z 10008KT 15/06 A3025 RMK A01 T01480059  RH  056%=      5-min Rain = 0
KPT1 260205Z 10008KT 15/06 A3025 RMK A01 T01480058  RH  056%=      5-min Rain = 0
KPT1 260210Z 11007KT 15/06 A3025 RMK A01 T01460058  RH  056%=      5-min Rain = 0
KPT1 260215Z 11007KT 14/06 A3025 RMK A01 T01430058  RH  057%=      5-min Rain = 0
KPT1 260220Z 11007KT 14/06 A3025 RMK A01 T01420059  RH  058%=      5-min Rain = 0
KPT1 260225Z 11007KT 14/06 A3026 RMK A01 T01410059  RH  059%=      5-min Rain = 0
KPT1 260230Z 11007KT 14/06 A3026 RMK A01 T01400059  RH  059%=      5-min Rain = 0
KPT1 260235Z 11007KT 14/06 A3026 RMK A01 T01380059  RH  060%=      5-min Rain = 0
KPT1 260240Z 12006KT 14/06 A3026 RMK A01 T01350059  RH  061%=      5-min Rain = 0
KPT1 260245Z 12006KT 13/06 A3026 RMK A01 T01320059  RH  062%=      5-min Rain = 0
KPT1 260250Z 11006KT 13/06 A3026 RMK A01 T01310058  RH  062%=      5-min Rain = 0
KPT1 260255Z 11007KT 13/06 A3027 RMK A01 T01320060  RH  062%=      5-min Rain = 0
KPT1 260300Z 11007KT 13/06 A3027 RMK A01 T01340060  RH  062%=      5-min Rain = 0
KPT1 260305Z 11007KT 13/06 A3027 RMK A01 T01340060  RH  062%=      5-min Rain = 0
KPT1 260310Z 11008KT 13/06 A3027 RMK A01 T01340061  RH  062%=      5-min Rain = 0
KPT1 260315Z 12007KT 13/06 A3028 RMK A01 T01330061  RH  062%=      5-min Rain = 0
KPT1 260320Z 12007KT 13/06 A3028 RMK A01 T01300060  RH  064%=      5-min Rain = 0
KPT1 260325Z 12007KT 13/06 A3028 RMK A01 T01260060  RH  065%=      5-min Rain = 0
KPT1 260330Z 13007KT 12/06 A3028 RMK A01 T01240061  RH  066%=      5-min Rain = 0
KPT1 260335Z 13007KT 12/06 A3028 RMK A01 T01240061  RH  066%=      5-min Rain = 0
KPT1 260340Z 13007KT 12/06 A3028 RMK A01 T01230061  RH  067%=      5-min Rain = 0
KPT1 260345Z 12007KT 12/06 A3028 RMK A01 T01230062  RH  067%=      5-min Rain = 0
KPT1 260350Z 12007KT 12/06 A3028 RMK A01 T01230062  RH  067%=      5-min Rain = 0
KPT1 260355Z 12007KT 12/06 A3028 RMK A01 T01220062  RH  068%=      5-min Rain = 0
KPT1 260400Z 12007KT 12/06 A3028 RMK A01 T01210063  RH  068%=      5-min Rain = 0
KPT1 260405Z 11007KT 12/06 A3028 RMK A01 T01210063  RH  069%=      5-min Rain = 0
KPT1 260410Z 11007KT 12/06 A3029 RMK A01 T01220063  RH  068%=      5-min Rain = 0
KPT1 260415Z 11006KT 12/06 A3029 RMK A01 T01220063  RH  069%=      5-min Rain = 0
KPT1 260420Z 12006KT 12/06 A3029 RMK A01 T01200063  RH  069%=      5-min Rain = 0
KPT1 260425Z 11006KT 12/06 A3029 RMK A01 T01180063  RH  070%=      5-min Rain = 0
KPT1 260430Z 11005KT 12/06 A3029 RMK A01 T01170064  RH  071%=      5-min Rain = 0
KPT1 260435Z 11005KT 12/06 A3029 RMK A01 T01160064  RH  071%=      5-min Rain = 0
KPT1 260440Z 10005KT 12/06 A3029 RMK A01 T01150064  RH  072%=      5-min Rain = 0
KPT1 260445Z 11005KT 11/06 A3029 RMK A01 T01140064  RH  073%=      5-min Rain = 0
KPT1 260450Z 11005KT 11/06 A3029 RMK A01 T01120064  RH  073%=      5-min Rain = 0
KPT1 260455Z 11005KT 11/06 A3029 RMK A01 T01110064  RH  074%=      5-min Rain = 0

Page generated in 0.0223 seconds.